createdAt,value
2019-04-14T00:05:14.708Z,18.70
2019-04-14T00:11:17.600Z,18.70
2019-04-14T00:17:21.530Z,18.60
2019-04-14T00:23:24.449Z,18.50
2019-04-14T00:29:28.440Z,18.40
2019-04-14T00:35:32.070Z,18.40
2019-04-14T00:41:43.843Z,18.30
2019-04-14T00:47:52.027Z,18.30
2019-04-14T00:53:44.612Z,18.20
2019-04-14T00:59:48.639Z,18.10
2019-04-14T01:05:52.591Z,18.00
2019-04-14T01:11:55.529Z,17.90
2019-04-14T01:17:59.211Z,17.80
2019-04-14T01:24:03.202Z,17.70
2019-04-14T01:30:06.721Z,17.70
2019-04-14T01:36:10.490Z,17.60
2019-04-14T01:42:13.807Z,17.50
2019-04-14T01:48:17.133Z,17.50
2019-04-14T01:54:19.959Z,17.40
2019-04-14T02:00:22.885Z,17.30
2019-04-14T02:06:26.606Z,17.30
2019-04-14T02:12:30.202Z,17.20
2019-04-14T02:18:33.980Z,17.20
2019-04-14T02:24:37.497Z,17.10
2019-04-14T02:30:49.240Z,17.10
2019-04-14T02:37:10.616Z,17.00
2019-04-14T02:49:20.945Z,16.90
2019-04-14T02:55:21.606Z,16.80
2019-04-14T03:01:35.382Z,16.80
2019-04-14T03:13:48.327Z,16.70
2019-04-14T03:19:43.935Z,16.70
2019-04-14T03:25:43.056Z,16.70
2019-04-14T03:43:54.583Z,16.70
2019-04-14T03:55:55.318Z,16.70
2019-04-14T04:01:54.802Z,16.70
2019-04-14T04:07:58.091Z,16.80
2019-04-14T04:14:00.940Z,16.80
2019-04-14T04:20:06.655Z,16.90
2019-04-14T04:26:10.438Z,16.90
2019-04-14T04:32:14.242Z,17.00
2019-04-14T04:38:18.099Z,17.00
2019-04-14T04:44:20.963Z,17.00
2019-04-14T04:50:23.931Z,17.00
2019-04-14T04:56:27.558Z,17.00
2019-04-14T05:02:30.928Z,17.10
2019-04-14T05:08:34.832Z,17.10
2019-04-14T05:14:37.652Z,17.10
2019-04-14T05:20:40.395Z,17.20
2019-04-14T05:26:43.786Z,17.20
2019-04-14T05:32:47.727Z,17.30
2019-04-14T05:38:51.750Z,17.30
2019-04-14T05:44:55.723Z,17.40
2019-04-14T05:50:59.769Z,17.40
2019-04-14T05:57:02.673Z,17.40
2019-04-14T06:03:05.991Z,17.50
2019-04-14T06:09:08.862Z,17.50
2019-04-14T06:15:11.880Z,17.50
2019-04-14T06:21:14.617Z,17.60
2019-04-14T06:27:17.434Z,17.60
2019-04-14T06:33:20.159Z,17.60
2019-04-14T06:39:23.216Z,17.60
2019-04-14T06:45:25.981Z,17.70
2019-04-14T06:51:28.705Z,17.70
2019-04-14T06:57:31.440Z,17.70
2019-04-14T07:03:34.171Z,17.90
2019-04-14T07:09:36.901Z,18.10
2019-04-14T07:15:39.631Z,18.20
2019-04-14T07:21:42.362Z,18.40
2019-04-14T07:27:45.087Z,18.50
2019-04-14T07:33:47.834Z,18.70
2019-04-14T07:39:50.620Z,18.80
2019-04-14T07:45:53.375Z,18.90
2019-04-14T07:51:56.097Z,19.10
2019-04-14T07:57:58.836Z,19.20
2019-04-14T08:04:01.575Z,19.20
2019-04-14T08:10:06.773Z,19.30
2019-04-14T08:16:09.500Z,19.50
2019-04-14T08:22:12.404Z,19.60
2019-04-14T08:28:15.135Z,19.80
2019-04-14T08:34:17.875Z,19.80
2019-04-14T08:40:20.613Z,19.90
2019-04-14T08:46:23.368Z,20.00
2019-04-14T08:52:26.114Z,20.10
2019-04-14T08:58:28.831Z,20.20
2019-04-14T09:04:31.549Z,20.30
2019-04-14T09:10:34.287Z,20.20
2019-04-14T09:16:37.032Z,20.20
2019-04-14T09:22:39.769Z,20.10
2019-04-14T09:28:43.792Z,20.10
2019-04-14T09:34:46.532Z,20.10
2019-04-14T09:40:49.259Z,20.20
2019-04-14T09:46:52.355Z,20.20
2019-04-14T09:52:55.089Z,20.20
2019-04-14T09:58:57.846Z,20.20
2019-04-14T10:05:00.644Z,20.20
2019-04-14T10:11:03.456Z,20.20
2019-04-14T10:17:06.183Z,20.20
2019-04-14T10:23:08.996Z,20.20
2019-04-14T10:29:11.724Z,20.20
2019-04-14T10:35:14.715Z,20.30
2019-04-14T10:41:17.502Z,20.20
2019-04-14T10:47:20.240Z,20.20
2019-04-14T10:53:22.975Z,20.30
2019-04-14T10:59:25.849Z,20.30
2019-04-14T11:05:28.634Z,20.30
2019-04-14T11:11:31.653Z,20.40
2019-04-14T11:17:34.392Z,20.40
2019-04-14T11:23:37.132Z,20.60
2019-04-14T11:29:40.176Z,20.60
2019-04-14T11:35:42.924Z,20.60
2019-04-14T11:41:45.992Z,20.70
2019-04-14T11:47:48.719Z,20.80
2019-04-14T11:53:51.497Z,20.80
2019-04-14T11:59:54.520Z,20.90
2019-04-14T12:05:57.288Z,21.00
2019-04-14T12:12:00.085Z,21.00
2019-04-14T12:18:03.089Z,21.00
2019-04-14T12:24:05.823Z,21.00
2019-04-14T12:30:10.939Z,21.00
2019-04-14T12:36:13.929Z,20.90
2019-04-14T12:42:16.665Z,20.80
2019-04-14T12:48:19.565Z,20.70
2019-04-14T12:54:22.311Z,20.80
2019-04-14T13:00:25.046Z,20.70
2019-04-14T13:06:27.780Z,20.70
2019-04-14T13:12:30.849Z,20.70
2019-04-14T13:18:33.579Z,20.60
2019-04-14T13:24:36.412Z,20.50
2019-04-14T13:30:39.147Z,20.50
2019-04-14T13:36:41.879Z,20.40
2019-04-14T13:42:44.607Z,20.40
2019-04-14T13:48:47.349Z,20.30
2019-04-14T13:54:50.085Z,20.20
2019-04-14T14:00:52.834Z,20.10
2019-04-14T14:06:55.621Z,20.10
2019-04-14T14:12:58.356Z,20.10
2019-04-14T14:19:01.084Z,20.10
2019-04-14T14:25:03.983Z,20.00
2019-04-14T14:31:06.712Z,20.00
2019-04-14T14:37:09.501Z,20.00
2019-04-14T14:43:12.272Z,19.90
2019-04-14T14:49:15.012Z,19.90
2019-04-14T14:55:18.051Z,19.90
2019-04-14T15:01:20.779Z,19.80
2019-04-14T15:07:23.501Z,19.80
2019-04-14T15:13:26.236Z,19.80
2019-04-14T15:19:28.964Z,19.70
2019-04-14T15:25:31.693Z,19.80
2019-04-14T15:31:34.436Z,19.70
2019-04-14T15:37:37.169Z,19.60
2019-04-14T15:43:39.904Z,19.40
2019-04-14T15:49:42.648Z,19.20
2019-04-14T15:55:45.400Z,19.30
2019-04-14T16:01:48.132Z,19.60
2019-04-14T16:07:51.115Z,19.70
2019-04-14T16:13:53.848Z,19.80
2019-04-14T16:19:56.593Z,19.90
2019-04-14T16:25:59.635Z,20.00
2019-04-14T16:32:02.376Z,20.00
2019-04-14T16:38:05.123Z,20.10
2019-04-14T16:44:07.867Z,20.20
2019-04-14T16:50:10.613Z,20.40
2019-04-14T16:56:13.428Z,20.50
2019-04-14T17:02:16.174Z,20.60
2019-04-14T17:08:18.913Z,20.60
2019-04-14T17:14:21.737Z,20.70
2019-04-14T17:20:24.469Z,20.90
2019-04-14T17:26:27.497Z,20.90
2019-04-14T17:32:30.344Z,21.00
2019-04-14T17:38:33.085Z,21.10
2019-04-14T17:44:35.829Z,21.10
2019-04-14T17:50:40.828Z,21.10
2019-04-14T17:56:43.108Z,21.10
2019-04-14T18:02:45.904Z,21.10
2019-04-14T18:08:48.647Z,21.10
2019-04-14T18:14:51.392Z,21.10
2019-04-14T18:20:54.127Z,21.20
2019-04-14T18:26:56.877Z,21.10
2019-04-14T18:32:59.651Z,21.10
2019-04-14T18:39:02.913Z,21.10
2019-04-14T18:45:05.660Z,21.10
2019-04-14T18:51:08.406Z,21.00
2019-04-14T18:57:11.188Z,21.00
2019-04-14T19:03:13.913Z,21.00
2019-04-14T19:09:16.654Z,20.90
2019-04-14T19:15:19.651Z,20.90
2019-04-14T19:21:22.387Z,20.90
2019-04-14T19:27:25.121Z,20.80
2019-04-14T19:33:27.852Z,20.70
2019-04-14T19:39:30.607Z,20.60
2019-04-14T19:45:33.416Z,20.50
2019-04-14T19:51:36.240Z,20.50
2019-04-14T19:57:38.963Z,20.40
2019-04-14T20:03:41.739Z,20.50
2019-04-14T20:09:44.465Z,20.40
2019-04-14T20:15:47.192Z,20.40
2019-04-14T20:21:49.922Z,20.40
2019-04-14T20:27:52.689Z,20.40
2019-04-14T20:33:55.451Z,20.30
2019-04-14T20:40:00.065Z,20.20
2019-04-14T20:46:02.807Z,20.20
2019-04-14T20:52:05.558Z,20.10
2019-04-14T20:58:08.295Z,20.10
2019-04-14T21:04:11.019Z,20.10
2019-04-14T21:10:13.791Z,20.10
2019-04-14T21:16:16.800Z,20.10
2019-04-14T21:22:19.548Z,20.10
2019-04-14T21:28:22.727Z,20.10
2019-04-14T21:34:25.462Z,20.00
2019-04-14T21:40:28.183Z,20.00
2019-04-14T21:46:30.917Z,19.90
2019-04-14T21:52:33.649Z,19.90
2019-04-14T21:58:36.492Z,19.80
2019-04-14T22:04:39.221Z,19.80
2019-04-14T22:10:41.969Z,19.70
2019-04-14T22:16:44.802Z,19.70
2019-04-14T22:22:47.540Z,19.60
2019-04-14T22:28:50.270Z,19.60
2019-04-14T22:34:53.000Z,19.50
2019-04-14T22:40:55.738Z,19.50
2019-04-14T22:46:58.454Z,19.40
2019-04-14T22:53:01.173Z,19.30
2019-04-14T22:59:03.937Z,19.30
2019-04-14T23:05:07.041Z,19.20
2019-04-14T23:11:10.246Z,19.20
2019-04-14T23:17:12.963Z,19.10
2019-04-14T23:23:15.701Z,19.00
2019-04-14T23:29:18.480Z,18.90
2019-04-14T23:35:21.567Z,18.90
2019-04-14T23:41:24.296Z,18.80
2019-04-14T23:47:27.020Z,18.70
2019-04-14T23:53:29.739Z,18.60
2019-04-14T23:59:32.474Z,18.60
